Impacts METAR Board
IDs:

KSAN - San Diego Intl Arpt, CA, US

Updated at: 2100 UTC 08 Feb 2023
Potential Impact None Slight Moderate High
Time 08/09Z 08/10Z 08/11Z 08/12Z 08/13Z 08/14Z 08/15Z 08/16Z 08/17Z 08/18Z 08/19Z 08/20Z 08/21Z
Temp49 50 47 46 46 46 46 52 60 62 68 68 67
Dewpt39 37 37 36 35 34 34 37 33 37 30 33 36
Altim30.25 30.24 30.23 30.22 30.22 30.23 30.25 30.26 30.28 30.28 30.27 30.23 30.21
VIS10 10 10 10 10 10 10 10 10 10 10 10 10
CIG250 250 250 250 250 -- -- -- -- -- -- -- --
CoverBKNBKNBKNBKNBKNSCTSCTFEWSCTFEWFEWFEWCLR
FltCatVFRVFRVFRVFRVFRVFRVFRVFRVFRVFRVFRVFRVFR
WX--------------------------
WDir30000006000000290310
WSpd3 0 0 0 0 3 0 0 0 0 0 6 9
WGst-- -- -- -- -- -- -- -- -- -- -- -- --
Raw hourly METARs
KSAN 080851Z 30003KT 10SM BKN250 09/04 A3025 RMK AO2 SLP241 T00940039 52000 $
KSAN 080951Z 00000KT 10SM BKN250 10/03 A3024 RMK AO2 SLP238 T01000028 $
KSAN 081051Z 00000KT 10SM BKN250 08/03 A3023 RMK AO2 SLP235 T00830028 $
KSAN 081151Z 00000KT 10SM BKN250 08/02 A3022 RMK AO2 SLP232 T00780022 10128 20078 57009 $
KSAN 081251Z 00000KT 10SM BKN250 08/02 A3022 RMK AO2 SLP234 T00780017 $
KSAN 081351Z 06003KT 10SM SCT250 08/01 A3023 RMK AO2 SLP237 T00780011 $
KSAN 081451Z 00000KT 10SM SCT250 08/01 A3025 RMK AO2 SLP242 T00780011 53010 $
KSAN 081551Z 00000KT 10SM FEW250 11/03 A3026 RMK AO2 SLP246 T01110028
KSAN 081651Z 00000KT 10SM SCT250 16/01 A3028 RMK AO2 SLP252 T01560006
KSAN 081751Z 00000KT 10SM FEW250 17/03 A3028 RMK AO2 SLP253 T01670028 10167 20072 51011
KSAN 081851Z 00000KT 10SM FEW250 20/M01 A3027 RMK AO2 SLP250 T02001011
KSAN 081951Z 29006KT 10SM FEW250 20/01 A3023 RMK AO2 SLP238 T02000006
KSAN 082051Z 31009KT 10SM CLR 19/02 A3021 RMK AO2 SLP230 T01940022 58023



Page loaded:  21:18 UTC  |   01:18 PM Pacific  |   02:18 PM Mountain  |   03:18 PM Central  |   04:18 PM Eastern

 

ADVISORIES

FORECASTS

FORECASTS

OBSERVATIONS

USER TOOLS

ABOUT US